Time;durP1;ratioP1;P1;durP2;ratioP2;P2;SDS_P1;SDS_P2;PMS_P1;PMS_P2;Temp;Humidity;BMP_temperature;BMP_pressure;BME280_temperature;BME280_humidity;BME280_pressure;Samples;Min_cycle;Max_cycle;Signal;HPM_P1;HPM_P2
2023/12/14 00:01:51;;;;;;;75.15;37.03;;;;;;;3.78;95.94;98963.25;5050549;28;20035;-39
2023/12/14 00:04:17;;;;;;;73.03;36.28;;;;;;;4.11;95.06;98967.19;5050568;28;20478;-39
2023/12/14 00:06:42;;;;;;;77.05;37.97;;;;;;;4.03;95.29;98945.38;5050216;28;20056;-39
2023/12/14 00:09:08;;;;;;;79.75;38.92;;;;;;;4.00;94.73;98953.63;5050498;28;20073;-39
2023/12/14 00:11:38;;;;;;;81.32;38.10;;;;;;;3.86;94.55;98939.47;5050734;28;20045;-39
2023/12/14 00:14:04;;;;;;;82.13;36.40;;;;;;;3.98;95.62;98951.22;5050357;28;20025;-38
2023/12/14 00:16:29;;;;;;;75.18;37.47;;;;;;;3.74;95.40;98954.06;5050625;28;20032;-39
2023/12/14 00:18:54;;;;;;;73.78;37.25;;;;;;;3.81;96.98;98962.88;5050482;28;20423;-39
2023/12/14 00:21:20;;;;;;;76.97;36.20;;;;;;;3.75;97.15;98972.31;5049715;28;20057;-38
2023/12/14 00:23:45;;;;;;;78.50;37.70;;;;;;;3.67;96.72;98956.59;5050353;28;20031;-39
2023/12/14 00:26:10;;;;;;;74.57;38.20;;;;;;;3.94;96.19;98959.63;5050299;28;20074;-39
2023/12/14 00:28:36;;;;;;;75.35;36.65;;;;;;;3.84;96.14;98952.00;5050375;28;20080;-39
2023/12/14 00:31:01;;;;;;;83.00;38.53;;;;;;;3.90;95.83;98957.38;5049980;28;20021;-39
2023/12/14 00:33:26;;;;;;;77.43;37.67;;;;;;;3.71;96.60;98952.59;5049876;28;20047;-39
2023/12/14 00:35:52;;;;;;;76.35;36.28;;;;;;;3.79;97.00;98963.06;5050194;28;20152;-39
2023/12/14 00:38:17;;;;;;;74.35;37.38;;;;;;;3.74;96.68;98969.88;5049968;28;20155;-40
2023/12/14 00:40:43;;;;;;;76.90;36.05;;;;;;;3.80;97.37;98974.41;5050164;28;20397;-39
2023/12/14 00:43:08;;;;;;;75.80;35.40;;;;;;;3.83;96.21;98969.59;5050002;28;20099;-39
2023/12/14 00:45:33;;;;;;;72.05;36.08;;;;;;;3.79;95.30;98963.06;5050160;28;20049;-39
2023/12/14 00:47:59;;;;;;;74.05;35.78;;;;;;;3.69;96.13;98973.84;5050001;28;20025;-39
2023/12/14 00:50:24;;;;;;;74.22;35.25;;;;;;;3.83;96.78;98974.88;5049779;28;20108;-39
2023/12/14 00:52:49;;;;;;;72.80;36.92;;;;;;;3.70;96.27;98958.88;5050121;28;20029;-36
2023/12/14 00:55:15;;;;;;;78.05;37.58;;;;;;;3.77;95.40;98967.69;5049489;28;20106;-38
2023/12/14 00:57:40;;;;;;;80.72;36.28;;;;;;;3.74;95.80;98975.94;5049878;28;20099;-39
2023/12/14 01:00:06;;;;;;;72.97;35.97;;;;;;;3.79;94.51;98968.34;5049948;28;20123;-39
2023/12/14 01:02:32;;;;;;;77.07;36.78;;;;;;;3.39;96.61;98941.38;5049817;28;20473;-37
2023/12/14 01:04:57;;;;;;;77.63;37.35;;;;;;;3.51;96.75;98954.91;5050185;28;20060;-26
2023/12/14 01:07:23;;;;;;;89.35;40.10;;;;;;;3.59;95.35;98946.94;5049862;28;20409;-26
2023/12/14 01:09:48;;;;;;;79.13;39.03;;;;;;;3.94;95.55;98931.50;5049565;28;20035;-27
2023/12/14 01:12:13;;;;;;;81.32;38.28;;;;;;;3.91;94.45;98916.88;5049660;28;20108;-26
2023/12/14 01:14:39;;;;;;;85.50;38.40;;;;;;;3.84;93.97;98923.84;5049695;28;20059;-26
2023/12/14 01:17:04;;;;;;;83.82;38.83;;;;;;;3.94;94.05;98907.81;5049698;28;20519;-26
2023/12/14 01:19:29;;;;;;;80.50;39.00;;;;;;;3.96;94.95;98918.16;5049822;28;20485;-26
2023/12/14 01:21:55;;;;;;;91.35;39.22;;;;;;;3.88;95.08;98919.88;5049566;28;20063;-26
2023/12/14 01:24:20;;;;;;;94.82;42.60;;;;;;;3.88;95.48;98926.94;5049506;28;20041;-26
2023/12/14 01:26:46;;;;;;;89.05;40.38;;;;;;;3.72;94.87;98915.56;5050372;28;20035;-26
2023/12/14 01:29:11;;;;;;;79.90;38.55;;;;;;;3.78;94.83;98906.16;5049919;28;20450;-26
2023/12/14 01:31:36;;;;;;;88.78;39.28;;;;;;;3.78;94.39;98921.13;5050319;28;20090;-26
2023/12/14 01:34:02;;;;;;;80.38;39.25;;;;;;;3.84;93.75;98920.41;5051336;28;20051;-26
2023/12/14 01:36:27;;;;;;;74.53;38.03;;;;;;;3.77;94.63;98927.38;5053566;28;20521;-26
2023/12/14 01:38:53;;;;;;;78.55;38.47;;;;;;;3.62;95.38;98906.31;5053663;28;20147;-26
2023/12/14 01:41:19;;;;;;;78.57;38.10;;;;;;;3.80;94.79;98927.84;5053976;28;20029;-26
2023/12/14 01:43:44;;;;;;;77.72;38.15;;;;;;;3.70;95.21;98914.13;5053747;28;20021;-26
2023/12/14 01:46:10;;;;;;;80.20;37.88;;;;;;;3.77;94.97;98920.31;5053635;28;20036;-25
2023/12/14 01:48:36;;;;;;;82.00;37.75;;;;;;;3.64;94.67;98912.22;5053480;28;20023;-26
2023/12/14 01:51:01;;;;;;;83.60;38.33;;;;;;;3.63;94.54;98915.84;5053600;28;20021;-26
2023/12/14 01:53:26;;;;;;;84.28;38.58;;;;;;;3.72;95.69;98928.75;5053579;28;20024;-26
2023/12/14 01:55:52;;;;;;;85.70;38.53;;;;;;;3.75;94.80;98914.44;5053492;28;20025;-26
2023/12/14 01:58:17;;;;;;;78.75;38.95;;;;;;;3.79;95.64;98925.38;5053124;28;20043;-26
2023/12/14 02:00:51;;;;;;;76.85;37.97;;;;;;;3.76;94.48;98926.56;5053374;28;20029;-26
2023/12/14 02:03:17;;;;;;;83.07;39.28;;;;;;;3.95;93.53;98921.78;5053460;28;20100;-27
2023/12/14 02:05:42;;;;;;;84.20;38.40;;;;;;;3.83;94.47;98906.44;5053463;28;20366;-27
2023/12/14 02:08:08;;;;;;;85.82;37.58;;;;;;;3.88;94.91;98925.16;5053196;28;20043;-26
2023/12/14 02:10:34;;;;;;;76.80;37.78;;;;;;;3.69;95.39;98920.38;5053124;28;20017;-27
2023/12/14 02:13:01;;;;;;;81.18;38.40;;;;;;;3.77;94.37;98924.75;5053418;28;20028;-27
2023/12/14 02:15:27;;;;;;;77.25;37.50;;;;;;;3.69;95.66;98917.75;5053070;28;20040;-26
2023/12/14 02:17:52;;;;;;;82.53;38.22;;;;;;;3.83;94.86;98916.97;5053284;28;20017;-26
2023/12/14 02:20:17;;;;;;;80.38;36.28;;;;;;;3.72;95.90;98910.31;5052932;28;20507;-25
2023/12/14 02:22:55;;;;;;;73.20;35.80;;;;;;;3.72;95.47;98907.69;5052935;28;20025;-25
2023/12/14 02:25:23;;;;;;;80.78;36.63;;;;;;;3.81;96.45;98911.06;5052897;28;20024;-27
2023/12/14 02:27:50;;;;;;;75.00;35.90;;;;;;;3.87;95.15;98914.78;5052950;28;20523;-26
2023/12/14 02:30:16;;;;;;;76.55;37.22;;;;;;;3.67;95.53;98898.69;5052799;28;20070;-27
2023/12/14 02:32:41;;;;;;;78.20;37.88;;;;;;;3.74;96.29;98915.41;5052960;28;20056;-26
2023/12/14 02:35:07;;;;;;;70.70;34.67;;;;;;;3.59;97.11;98896.97;5053101;28;20029;-27
2023/12/14 02:37:34;;;;;;;67.82;33.70;;;;;;;3.70;96.35;98922.84;5051667;28;20338;-25
2023/12/14 02:40:00;;;;;;;69.85;34.22;;;;;;;3.75;96.85;98909.16;5052945;28;20017;-26
2023/12/14 02:42:26;;;;;;;67.10;32.15;;;;;;;4.00;95.51;98912.34;5052658;28;20029;-26
2023/12/14 02:44:53;;;;;;;65.03;31.33;;;;;;;3.79;96.33;98909.59;5052296;28;20025;-26
2023/12/14 02:47:18;;;;;;;65.32;30.95;;;;;;;3.95;95.75;98909.44;5052622;28;20754;-26
2023/12/14 02:49:44;;;;;;;70.78;31.55;;;;;;;3.74;94.96;98914.59;5052828;28;20108;-26
2023/12/14 02:52:09;;;;;;;62.15;31.60;;;;;;;3.79;95.93;98905.16;5052559;28;20496;-26
2023/12/14 02:54:37;;;;;;;64.18;31.63;;;;;;;3.99;95.68;98920.44;5052782;28;20031;-26
2023/12/14 02:57:03;;;;;;;62.28;29.63;;;;;;;3.70;96.46;98900.97;5052640;28;20028;-32
2023/12/14 02:59:28;;;;;;;62.65;31.67;;;;;;;3.96;95.28;98897.91;5052141;28;20357;-26
2023/12/14 03:01:54;;;;;;;60.92;31.70;;;;;;;3.85;95.37;98898.38;5052609;28;20087;-26
2023/12/14 03:04:19;;;;;;;68.35;32.17;;;;;;;3.69;94.22;98915.13;5052390;28;20053;-27
2023/12/14 03:06:44;;;;;;;64.43;30.05;;;;;;;3.85;95.07;98920.22;5052243;28;20036;-26
2023/12/14 03:09:10;;;;;;;56.25;28.75;;;;;;;3.75;94.66;98922.31;5052220;28;20480;-26
2023/12/14 03:11:35;;;;;;;56.03;29.48;;;;;;;3.82;95.07;98906.63;5052443;28;20025;-26
2023/12/14 03:14:00;;;;;;;54.65;27.45;;;;;;;3.85;94.74;98886.00;5052297;28;20032;-26
2023/12/14 03:16:26;;;;;;;53.13;27.00;;;;;;;4.06;94.60;98902.91;5052527;28;20031;-27
2023/12/14 03:18:53;;;;;;;60.42;28.08;;;;;;;4.02;94.48;98899.00;5052020;28;20017;-25
2023/12/14 03:21:19;;;;;;;52.33;26.67;;;;;;;3.95;93.82;98898.91;5052339;28;20035;-25
2023/12/14 03:23:45;;;;;;;53.58;27.17;;;;;;;3.74;95.42;98899.63;5052314;28;20020;-25
2023/12/14 03:26:10;;;;;;;56.25;26.20;;;;;;;3.85;94.94;98922.88;5051480;28;20511;-25
2023/12/14 03:28:35;;;;;;;54.88;27.30;;;;;;;3.89;94.01;98907.53;5051565;28;20029;-25
2023/12/14 03:31:01;;;;;;;54.15;26.98;;;;;;;3.80;94.05;98906.78;5051882;28;20060;-26
2023/12/14 03:33:26;;;;;;;51.40;25.75;;;;;;;3.79;93.86;98914.84;5051921;28;20044;-25
2023/12/14 03:35:52;;;;;;;50.90;25.60;;;;;;;3.74;95.43;98915.41;5051787;28;20040;-25
2023/12/14 03:38:17;;;;;;;53.13;25.38;;;;;;;3.88;94.52;98904.09;5051458;28;20047;-27
2023/12/14 03:40:42;;;;;;;49.25;26.40;;;;;;;3.78;94.87;98908.78;5051764;28;20096;-26
2023/12/14 03:43:08;;;;;;;48.95;26.17;;;;;;;3.86;93.88;98916.59;5051510;28;20037;-26
2023/12/14 03:45:33;;;;;;;50.05;25.65;;;;;;;3.97;93.44;98919.78;5051462;28;20115;-27
2023/12/14 03:47:58;;;;;;;54.70;26.95;;;;;;;3.90;94.19;98923.16;5051490;28;20449;-27
2023/12/14 03:50:24;;;;;;;54.33;26.45;;;;;;;3.91;92.89;98911.59;5051310;28;20028;-27
2023/12/14 03:52:50;;;;;;;57.38;27.17;;;;;;;3.98;90.98;98897.72;5051222;28;20036;-27
2023/12/14 03:55:15;;;;;;;55.20;28.02;;;;;;;3.70;92.10;98909.69;5051477;28;20017;-27
2023/12/14 03:57:41;;;;;;;51.05;26.20;;;;;;;3.59;92.27;98910.13;5050764;28;20086;-27
2023/12/14 04:00:12;;;;;;;49.40;26.00;;;;;;;3.57;91.89;98904.22;5050934;28;20071;-28
2023/12/14 04:02:37;;;;;;;52.75;26.02;;;;;;;3.32;93.68;98919.41;5051206;28;20496;-27
2023/12/14 04:05:03;;;;;;;52.33;26.65;;;;;;;3.28;93.99;98894.44;5051137;28;20028;-27
2023/12/14 04:07:28;;;;;;;53.65;26.70;;;;;;;3.46;93.76;98886.22;5051146;28;20028;-27
2023/12/14 04:09:54;;;;;;;55.60;25.17;;;;;;;3.48;93.06;98900.84;5051168;28;20108;-27
2023/12/14 04:12:19;;;;;;;48.60;25.10;;;;;;;3.16;94.17;98901.09;5051088;28;20420;-27
2023/12/14 04:14:46;;;;;;;52.13;26.17;;;;;;;3.25;93.82;98889.53;5050880;28;20104;-27
2023/12/14 04:17:12;;;;;;;50.85;26.83;;;;;;;3.28;94.68;98883.94;5050875;28;20025;-26
2023/12/14 04:19:40;;;;;;;57.33;26.55;;;;;;;3.33;94.32;98905.22;5051517;28;20088;-27
2023/12/14 04:22:06;;;;;;;49.33;25.60;;;;;;;3.52;94.61;98904.75;5050649;28;20086;-27
2023/12/14 04:24:31;;;;;;;51.28;26.17;;;;;;;3.56;93.53;98899.97;5051115;28;20036;-27
2023/12/14 04:26:56;;;;;;;52.00;26.08;;;;;;;3.35;93.64;98903.28;5050999;28;20045;-27
2023/12/14 04:29:22;;;;;;;53.10;26.52;;;;;;;3.29;94.31;98896.91;5050902;28;20086;-27
2023/12/14 04:31:48;;;;;;;48.15;25.40;;;;;;;3.36;94.13;98897.00;5050586;28;20381;-27
2023/12/14 04:34:15;;;;;;;46.38;23.65;;;;;;;3.23;94.34;98916.00;5050579;28;20033;-27
2023/12/14 04:36:42;;;;;;;48.45;23.75;;;;;;;3.21;94.79;98918.00;5050748;28;20100;-27
2023/12/14 04:39:07;;;;;;;40.10;21.92;;;;;;;3.17;95.37;98913.28;5050697;28;20021;-28
2023/12/14 04:41:33;;;;;;;46.40;23.35;;;;;;;3.14;95.24;98901.28;5050549;28;20021;-28
2023/12/14 04:43:58;;;;;;;46.53;23.08;;;;;;;3.03;95.88;98910.41;5050080;28;20036;-27
2023/12/14 04:46:23;;;;;;;46.85;22.27;;;;;;;3.01;96.66;98915.03;5050401;28;20029;-27
2023/12/14 04:48:49;;;;;;;43.63;22.88;;;;;;;3.19;96.32;98912.09;5049998;28;20078;-27
2023/12/14 04:51:14;;;;;;;44.70;23.55;;;;;;;3.21;95.72;98898.78;5050141;28;20083;-28
2023/12/14 04:53:39;;;;;;;48.83;24.15;;;;;;;3.08;95.58;98876.50;5050877;28;20028;-27
2023/12/14 04:56:09;;;;;;;56.38;23.67;;;;;;;3.14;95.45;98882.88;5050881;28;20025;-27
2023/12/14 04:58:34;;;;;;;41.90;22.42;;;;;;;3.06;95.44;98893.47;5050333;28;20392;-27
2023/12/14 05:01:00;;;;;;;43.20;22.40;;;;;;;3.09;94.67;98890.50;5050278;28;20111;-27
2023/12/14 05:03:25;;;;;;;47.47;24.67;;;;;;;3.65;97.05;98884.91;5050194;28;20020;-26
2023/12/14 05:05:50;;;;;;;43.10;22.85;;;;;;;3.52;93.09;98896.88;5050379;28;20019;-26
2023/12/14 05:08:16;;;;;;;42.47;22.98;;;;;;;3.32;94.42;98901.78;5052649;28;20531;-27
2023/12/14 05:10:41;;;;;;;46.67;23.25;;;;;;;3.35;93.79;98890.13;5053607;28;20024;-26
2023/12/14 05:13:06;;;;;;;44.58;24.40;;;;;;;3.55;93.72;98887.78;5054243;28;20091;-26
2023/12/14 05:15:32;;;;;;;52.65;25.08;;;;;;;3.93;92.72;98898.28;5054131;28;20017;-26
2023/12/14 05:17:58;;;;;;;45.75;23.83;;;;;;;3.40;92.89;98908.78;5054365;28;20072;-26
2023/12/14 05:20:23;;;;;;;53.35;25.90;;;;;;;3.40;93.27;98890.38;5053943;28;20447;-27
2023/12/14 05:22:48;;;;;;;52.80;24.98;;;;;;;3.60;95.56;98890.72;5054187;28;20138;-27
2023/12/14 05:25:14;;;;;;;49.90;25.00;;;;;;;3.56;94.05;98885.97;5053861;28;20025;-26
2023/12/14 05:27:40;;;;;;;46.63;23.77;;;;;;;3.16;93.68;98883.53;5054072;28;20059;-27
2023/12/14 05:30:06;;;;;;;51.47;24.90;;;;;;;3.30;95.24;98879.31;5054361;28;20053;-27
2023/12/14 05:32:31;;;;;;;50.97;25.15;;;;;;;3.12;94.64;98896.22;5053979;28;20098;-27
2023/12/14 05:34:56;;;;;;;50.20;24.77;;;;;;;3.52;98.75;98902.13;5053703;28;20119;-28
2023/12/14 05:37:22;;;;;;;49.88;24.45;;;;;;;3.60;94.05;98916.19;5054141;28;20032;-28
2023/12/14 05:39:47;;;;;;;48.88;24.70;;;;;;;3.16;93.69;98911.63;5054254;28;20025;-28
2023/12/14 05:42:17;;;;;;;50.63;24.33;;;;;;;3.10;93.58;98903.47;5054189;28;20032;-27
2023/12/14 05:44:45;;;;;;;56.53;26.48;;;;;;;2.95;95.23;98905.19;5052651;28;20683;-27
2023/12/14 05:47:11;;;;;;;48.05;25.85;;;;;;;2.76;95.91;98913.53;5052146;28;20028;-27
2023/12/14 05:49:37;;;;;;;56.58;28.98;;;;;;;2.82;96.04;98908.41;5051712;28;20596;-27
2023/12/14 05:52:02;;;;;;;56.20;28.70;;;;;;;3.10;95.06;98907.88;5051240;28;20025;-27
2023/12/14 05:54:28;;;;;;;60.60;29.00;;;;;;;3.01;95.42;98928.16;5051005;28;20021;-28
2023/12/14 05:56:53;;;;;;;56.70;27.67;;;;;;;3.09;96.33;98927.28;5051298;28;20053;-26
2023/12/14 05:59:18;;;;;;;58.22;28.17;;;;;;;3.12;95.84;98921.66;5052373;28;20437;-27
2023/12/14 06:01:44;;;;;;;54.70;29.63;;;;;;;3.10;95.60;98919.25;5052505;28;20147;-26
2023/12/14 06:04:09;;;;;;;59.83;28.98;;;;;;;3.17;96.19;98910.63;5051538;28;20029;-26
2023/12/14 06:06:34;;;;;;;57.10;28.55;;;;;;;3.29;96.43;98930.25;5050912;28;20103;-27
2023/12/14 06:09:00;;;;;;;61.67;28.20;;;;;;;3.38;94.77;98929.19;5051674;28;20056;-27
2023/12/14 06:11:25;;;;;;;55.67;28.67;;;;;;;3.39;95.54;98915.06;5051779;28;20079;-28
2023/12/14 06:13:51;;;;;;;55.90;28.30;;;;;;;3.47;94.92;98924.72;5051683;28;20119;-28
2023/12/14 06:16:16;;;;;;;55.58;27.77;;;;;;;3.49;94.39;98930.59;5051754;28;20028;-27
2023/12/14 06:18:43;;;;;;;54.45;28.00;;;;;;;3.60;94.55;98934.59;5051556;28;20071;-26
2023/12/14 06:21:10;;;;;;;52.78;27.08;;;;;;;3.72;94.28;98927.94;5052411;28;20036;-27
2023/12/14 06:23:36;;;;;;;52.35;25.73;;;;;;;3.70;93.44;98917.56;5052725;28;20021;-27
2023/12/14 06:26:03;;;;;;;55.25;26.52;;;;;;;3.51;93.58;98921.53;5052999;28;20083;-27
2023/12/14 06:28:30;;;;;;;57.03;26.27;;;;;;;3.64;94.21;98935.91;5052799;28;20469;-27
2023/12/14 06:30:56;;;;;;;55.35;28.50;;;;;;;3.85;94.85;98932.59;5052717;28;20375;-26
2023/12/14 06:33:21;;;;;;;49.38;27.02;;;;;;;3.59;95.18;98923.28;5053030;28;20044;-26
2023/12/14 06:35:47;;;;;;;50.92;27.17;;;;;;;3.91;94.21;98927.41;5052914;28;20108;-26
2023/12/14 06:38:12;;;;;;;50.92;25.80;;;;;;;3.87;94.49;98934.03;5052895;28;20025;-26
2023/12/14 06:40:38;;;;;;;51.13;26.45;;;;;;;3.88;93.69;98927.78;5052934;28;20029;-27
2023/12/14 06:43:05;;;;;;;53.10;26.10;;;;;;;3.99;93.58;98937.03;5052537;28;20035;-27
2023/12/14 06:45:30;;;;;;;51.28;26.73;;;;;;;3.87;93.72;98943.75;5052738;28;20056;-26
2023/12/14 06:47:56;;;;;;;51.13;26.85;;;;;;;4.10;93.39;98939.22;5052573;28;20063;-28
2023/12/14 06:50:21;;;;;;;48.13;25.20;;;;;;;4.14;93.68;98934.41;5052846;28;20040;-28
2023/12/14 06:52:47;;;;;;;48.85;24.45;;;;;;;4.23;93.40;98927.25;5052685;28;20033;-28
2023/12/14 06:55:14;;;;;;;51.75;25.83;;;;;;;4.27;93.26;98934.59;5052617;28;20033;-27
2023/12/14 06:57:42;;;;;;;55.17;26.33;;;;;;;4.45;93.14;98930.75;5052760;28;20107;-27
2023/12/14 07:00:08;;;;;;;50.90;25.95;;;;;;;4.59;91.00;98947.53;5052269;28;20044;-28
2023/12/14 07:02:33;;;;;;;53.35;25.50;;;;;;;4.73;91.95;98951.97;5051985;28;20108;-27
2023/12/14 07:04:59;;;;;;;54.50;26.42;;;;;;;4.54;90.86;98932.28;5052529;28;20111;-28
2023/12/14 07:07:24;;;;;;;47.13;24.23;;;;;;;4.84;90.41;98917.22;5051836;28;20048;-28
2023/12/14 07:09:50;;;;;;;51.08;28.65;;;;;;;4.66;91.49;98917.66;5051269;28;20059;-27
2023/12/14 07:12:15;;;;;;;50.83;25.35;;;;;;;4.67;92.23;98932.44;5052168;28;20021;-28
2023/12/14 07:14:40;;;;;;;46.70;22.95;;;;;;;4.53;92.14;98935.91;5051859;28;20040;-27
2023/12/14 07:17:06;;;;;;;55.03;24.23;;;;;;;4.59;92.07;98932.56;5050276;28;20483;-27
2023/12/14 07:19:31;;;;;;;43.40;22.75;;;;;;;4.66;92.26;98930.00;5052165;28;20029;-28
2023/12/14 07:21:57;;;;;;;60.88;32.78;;;;;;;5.14;91.99;98937.41;5052063;28;20021;-27
2023/12/14 07:24:22;;;;;;;56.90;30.13;;;;;;;5.29;89.97;98944.28;5051935;28;20036;-27
2023/12/14 07:26:48;;;;;;;44.25;24.17;;;;;;;5.03;90.30;98936.09;5051914;28;20029;-29
2023/12/14 07:29:13;;;;;;;41.45;22.13;;;;;;;4.86;90.80;98948.69;5051775;28;20075;-28
2023/12/14 07:31:38;;;;;;;40.50;21.92;;;;;;;4.97;89.77;98944.72;5051807;28;20112;-28
2023/12/14 07:34:04;;;;;;;41.80;22.05;;;;;;;5.21;89.79;98948.84;5051579;28;20444;-28
2023/12/14 07:36:29;;;;;;;38.67;21.50;;;;;;;5.26;88.84;98949.09;5051632;28;20037;-27
2023/12/14 07:38:55;;;;;;;43.03;22.67;;;;;;;5.29;89.82;98938.16;5051374;28;20021;-27
2023/12/14 07:41:23;;;;;;;42.53;21.65;;;;;;;5.16;88.64;98943.31;5051585;28;20024;-28
2023/12/14 07:43:48;;;;;;;43.83;22.13;;;;;;;5.12;90.26;98949.97;5051532;28;20477;-28
2023/12/14 07:46:14;;;;;;;38.22;21.00;;;;;;;5.22;89.52;98938.09;5051252;28;20020;-27
2023/12/14 07:48:39;;;;;;;45.72;23.02;;;;;;;5.23;88.91;98933.63;5051014;28;20033;-30
2023/12/14 07:51:05;;;;;;;39.60;21.42;;;;;;;5.59;89.60;98961.78;5051868;28;20021;-27
2023/12/14 07:53:30;;;;;;;42.67;21.65;;;;;;;5.44;89.19;98957.38;5051149;28;20469;-28
2023/12/14 07:55:56;;;;;;;48.58;23.40;;;;;;;5.51;89.17;98962.72;5051238;28;20505;-27
2023/12/14 07:58:22;;;;;;;41.47;22.25;;;;;;;5.62;88.72;98950.84;5051242;28;20028;-28
2023/12/14 08:00:47;;;;;;;44.53;22.83;;;;;;;5.53;88.79;98955.44;5051221;28;20074;-28
2023/12/14 08:03:12;;;;;;;44.63;23.17;;;;;;;5.75;87.62;98972.06;5051360;28;20053;-29
2023/12/14 08:05:38;;;;;;;41.22;22.58;;;;;;;5.72;87.54;98980.38;5050788;28;20029;-28
2023/12/14 08:08:03;;;;;;;41.45;21.58;;;;;;;5.66;87.62;98973.22;5051057;28;20017;-27
2023/12/14 08:10:28;;;;;;;38.90;20.95;;;;;;;5.70;88.60;98952.53;5051297;28;20112;-28
2023/12/14 08:12:54;;;;;;;42.28;20.40;;;;;;;5.75;87.78;98955.41;5051439;28;20104;-27
2023/12/14 08:15:19;;;;;;;41.65;21.25;;;;;;;5.78;88.47;98928.63;5051025;28;20031;-28
2023/12/14 08:17:45;;;;;;;37.85;20.92;;;;;;;6.11;86.59;98957.09;5050972;28;20047;-27
2023/12/14 08:20:12;;;;;;;42.35;21.80;;;;;;;6.07;88.31;98954.88;5051051;28;20507;-30
2023/12/14 08:22:37;;;;;;;40.63;22.45;;;;;;;6.37;86.39;98959.09;5051090;28;20118;-28
2023/12/14 08:25:03;;;;;;;42.15;21.98;;;;;;;6.12;86.45;98954.28;5051270;28;20054;-27
2023/12/14 08:27:29;;;;;;;46.92;25.70;;;;;;;6.32;85.97;98957.06;5051056;28;20555;-28
2023/12/14 08:29:54;;;;;;;40.25;22.92;;;;;;;6.32;86.75;98950.94;5050728;28;20029;-28
2023/12/14 08:32:19;;;;;;;40.92;23.08;;;;;;;6.56;86.26;98955.72;5050591;28;20043;-28
2023/12/14 08:34:45;;;;;;;40.35;22.98;;;;;;;6.59;86.05;98963.28;5050801;28;20072;-28
2023/12/14 08:37:10;;;;;;;45.33;23.52;;;;;;;6.69;86.04;98948.88;5051062;28;20025;-27
2023/12/14 08:39:36;;;;;;;40.78;22.80;;;;;;;6.54;85.36;98947.19;5050731;28;20167;-26
2023/12/14 08:42:01;;;;;;;38.63;19.63;;;;;;;6.75;84.54;98956.00;5050451;28;20025;-27
2023/12/14 08:44:26;;;;;;;39.58;23.17;;;;;;;6.88;83.37;98964.00;5050786;28;20028;-28
2023/12/14 08:46:52;;;;;;;34.30;18.52;;;;;;;6.84;82.11;98960.94;5050887;28;20028;-27
2023/12/14 08:49:17;;;;;;;38.97;19.48;;;;;;;7.01;82.41;98953.47;5051003;28;20028;-26
2023/12/14 08:51:43;;;;;;;34.13;18.85;;;;;;;6.92;81.88;98970.53;5050896;28;20024;-28
2023/12/14 08:54:09;;;;;;;36.65;18.85;;;;;;;6.88;83.05;98963.19;5050663;28;20412;-27
2023/12/14 08:56:35;;;;;;;30.90;17.48;;;;;;;7.05;82.11;98967.09;5050264;28;20052;-27
2023/12/14 08:59:03;;;;;;;33.50;18.08;;;;;;;7.33;81.14;98966.97;5050548;28;20432;-28
2023/12/14 09:01:28;;;;;;;35.30;20.08;;;;;;;8.08;89.56;98964.13;5050793;28;20040;-27
2023/12/14 09:03:54;;;;;;;30.85;18.88;;;;;;;8.84;79.19;98949.44;5050173;28;20504;-27
2023/12/14 09:06:20;;;;;;;31.55;18.15;;;;;;;9.17;74.02;98967.81;5050430;28;20036;-28
2023/12/14 09:08:45;;;;;;;34.22;18.25;;;;;;;9.78;71.49;98974.34;5050135;28;20025;-29
2023/12/14 09:11:12;;;;;;;34.47;17.77;;;;;;;10.12;69.98;98969.56;5050762;28;20111;-29
2023/12/14 09:13:37;;;;;;;28.35;16.15;;;;;;;10.08;68.65;98947.13;5050590;28;20036;-27
2023/12/14 09:16:03;;;;;;;25.85;16.20;;;;;;;10.22;67.41;98945.13;5050142;28;20036;-27
2023/12/14 09:18:28;;;;;;;29.27;18.52;;;;;;;10.56;67.42;98932.31;5050538;28;20109;-26
2023/12/14 09:20:53;;;;;;;28.70;17.83;;;;;;;10.89;64.88;98933.75;5050387;28;20056;-30
2023/12/14 09:23:19;;;;;;;33.40;18.08;;;;;;;11.00;64.01;98938.31;5050773;28;20036;-28
2023/12/14 09:25:45;;;;;;;33.15;18.83;;;;;;;11.09;62.26;98934.28;5050547;28;20040;-28
2023/12/14 09:28:10;;;;;;;33.33;18.45;;;;;;;11.04;63.51;98925.34;5050420;28;20021;-28
2023/12/14 09:30:36;;;;;;;37.67;17.45;;;;;;;11.16;63.41;98920.91;5050428;28;20025;-28
2023/12/14 09:33:01;;;;;;;36.28;18.92;;;;;;;11.10;63.95;98903.97;5050451;28;20037;-28
2023/12/14 09:35:27;;;;;;;32.60;18.20;;;;;;;10.93;64.11;98903.00;5050075;28;20048;-27
2023/12/14 09:37:53;;;;;;;28.83;17.45;;;;;;;11.30;63.67;98909.00;5050298;28;20095;-28
2023/12/14 09:40:19;;;;;;;33.42;18.08;;;;;;;11.43;62.96;98915.16;5050032;28;20117;-29
2023/12/14 09:42:44;;;;;;;35.03;19.23;;;;;;;11.80;61.06;98909.63;5049988;28;20162;-27
2023/12/14 09:45:11;;;;;;;34.08;18.98;;;;;;;11.47;62.93;98901.16;5050217;28;20017;-28
2023/12/14 09:47:38;;;;;;;35.05;18.88;;;;;;;11.54;63.18;98885.88;5050086;28;20032;-30
2023/12/14 09:50:04;;;;;;;31.80;18.15;;;;;;;11.61;62.01;98891.06;5050130;28;20025;-28
2023/12/14 09:52:30;;;;;;;32.03;18.15;;;;;;;12.05;60.36;98883.59;5050238;28;20033;-27
2023/12/14 09:54:56;;;;;;;38.22;21.30;;;;;;;11.91;61.74;98892.84;5051487;28;20025;-29
2023/12/14 09:57:21;;;;;;;29.95;18.25;;;;;;;12.24;59.24;98878.09;5053638;28;20025;-28
2023/12/14 09:59:53;;;;;;;33.63;18.90;;;;;;;12.44;59.63;98889.19;5053635;28;20118;-27
2023/12/14 10:02:20;;;;;;;33.17;20.65;;;;;;;12.59;59.88;98883.34;5053254;28;20033;-28
2023/12/14 10:04:46;;;;;;;35.05;19.17;;;;;;;12.76;58.64;98891.41;5053829;28;20029;-29
2023/12/14 10:07:12;;;;;;;39.53;19.55;;;;;;;12.75;58.82;98876.41;5053726;28;20381;-28
2023/12/14 10:09:37;;;;;;;32.67;18.63;;;;;;;12.74;58.22;98876.66;5053560;28;20036;-28
2023/12/14 10:12:08;;;;;;;32.85;18.65;;;;;;;12.66;58.89;98875.16;5053586;28;20021;-27
2023/12/14 10:14:34;;;;;;;33.25;19.15;;;;;;;12.95;57.82;98867.19;5053349;28;20029;-27
2023/12/14 10:17:16;;;;;;;32.97;18.13;;;;;;;13.02;59.09;98865.16;5053037;28;20079;-27
2023/12/14 10:19:45;;;;;;;33.97;18.17;;;;;;;13.39;57.07;98859.38;5053244;28;20499;-28
2023/12/14 10:22:13;;;;;;;34.88;19.02;;;;;;;13.19;58.02;98863.28;5052938;28;20104;-27
2023/12/14 10:24:38;;;;;;;33.65;19.88;;;;;;;12.99;58.36;98837.06;5053137;28;20151;-27
2023/12/14 10:27:11;;;;;;;35.58;19.05;;;;;;;13.37;58.00;98848.94;5053156;28;20024;-27
2023/12/14 10:29:40;;;;;;;34.05;18.38;;;;;;;13.09;58.99;98857.78;5052838;28;20048;-26
2023/12/14 10:32:07;;;;;;;29.77;16.98;;;;;;;13.21;58.40;98847.88;5053105;28;20060;-27
2023/12/14 10:34:33;;;;;;;30.65;15.55;;;;;;;13.32;58.40;98848.06;5052761;28;20493;-28
2023/12/14 10:37:00;;;;;;;26.85;16.55;;;;;;;13.02;59.21;98833.94;5053066;28;20025;-27
2023/12/14 10:39:26;;;;;;;34.15;19.27;;;;;;;13.59;54.77;98818.78;5052860;28;20120;-28
2023/12/14 10:41:54;;;;;;;33.10;19.50;;;;;;;13.82;54.45;98829.28;5053091;28;20083;-27
2023/12/14 10:44:23;;;;;;;35.60;20.77;;;;;;;13.77;55.12;98831.88;5053079;28;20033;-29
2023/12/14 10:46:52;;;;;;;33.53;20.70;;;;;;;13.58;54.88;98831.34;5053012;28;20021;-28
2023/12/14 10:49:18;;;;;;;34.45;19.55;;;;;;;13.57;55.71;98827.03;5052902;28;20115;-27
2023/12/14 10:51:44;;;;;;;35.58;20.83;;;;;;;13.67;56.04;98834.44;5052858;28;20101;-29
2023/12/14 10:54:10;;;;;;;36.65;21.77;;;;;;;13.71;55.52;98843.56;5052759;28;20020;-27
2023/12/14 10:56:36;;;;;;;35.13;21.73;;;;;;;13.76;55.74;98850.84;5052572;28;20032;-27
2023/12/14 10:59:02;;;;;;;39.17;22.02;;;;;;;14.07;55.34;98836.84;5052582;28;20056;-26
2023/12/14 11:01:29;;;;;;;35.05;19.73;;;;;;;14.07;55.33;98825.34;5052189;28;20116;-28
2023/12/14 11:03:56;;;;;;;32.80;18.45;;;;;;;13.67;55.39;98826.41;5052793;28;20017;-29
2023/12/14 11:06:24;;;;;;;32.63;18.95;;;;;;;13.97;54.82;98831.34;5052632;28;20048;-28
2023/12/14 11:08:54;;;;;;;35.42;19.67;;;;;;;14.02;54.89;98834.09;5052315;28;20095;-29
2023/12/14 11:11:20;;;;;;;30.67;18.90;;;;;;;14.10;54.74;98832.03;5052365;28;20743;-27
2023/12/14 11:13:52;;;;;;;36.33;19.58;;;;;;;13.66;54.88;98822.09;5052713;28;20021;-27
2023/12/14 11:16:21;;;;;;;30.30;18.38;;;;;;;13.41;57.15;98822.53;5051979;28;20017;-27
2023/12/14 11:18:47;;;;;;;31.67;19.58;;;;;;;13.88;54.80;98814.13;5051912;28;20104;-28